Time;durP1;ratioP1;P1;durP2;ratioP2;P2;SDS_P1;SDS_P2;PMS_P1;PMS_P2;Temp;Humidity;BMP_temperature;BMP_pressure;BME280_temperature;BME280_humidity;BME280_pressure;Samples;Min_cycle;Max_cycle;Signal;HPM_P1;HPM_P2
2023/07/16 00:01:55;;;;;;;;;;;;;;;20.82;92.73;98136.06;7366279;19;19922;-72
2023/07/16 00:04:22;;;;;;;;;;;;;;;20.90;92.48;98159.13;7367390;19;19918;-72
2023/07/16 00:06:49;;;;;;;;;;;;;;;20.81;93.00;98155.94;7366763;19;19923;-73
2023/07/16 00:09:16;;;;;;;;;;;;;;;20.77;93.01;98168.16;7365634;19;19931;-73
2023/07/16 00:11:43;;;;;;;;;;;;;;;20.83;92.23;98164.59;7354933;19;19919;-73
2023/07/16 00:14:11;;;;;;;;;;;;;;;20.76;92.29;98172.72;7367039;19;19926;-73
2023/07/16 00:16:37;;;;;;;;;;;;;;;20.77;92.83;98149.34;7364165;19;19922;-73
2023/07/16 00:19:04;;;;;;;;;;;;;;;20.66;92.91;98142.88;7365434;19;21113;-72
2023/07/16 00:21:31;;;;;;;;;;;;;;;20.75;91.95;98152.28;7364883;19;19922;-74
2023/07/16 00:23:58;;;;;;;;;;;;;;;20.70;91.85;98154.00;7368452;19;19931;-73
2023/07/16 00:26:25;;;;;;;;;;;;;;;20.77;92.18;98162.78;7370743;19;19922;-73
2023/07/16 00:28:52;;;;;;;;;;;;;;;20.70;92.39;98162.91;7362787;19;19922;-72
2023/07/16 00:31:18;;;;;;;;;;;;;;;20.74;92.55;98157.88;7365801;19;19929;-72
2023/07/16 00:33:45;;;;;;;;;;;;;;;20.75;92.29;98167.59;7360634;19;19922;-72
2023/07/16 00:36:12;;;;;;;;;;;;;;;20.80;91.76;98173.09;7369001;19;19930;-72
2023/07/16 00:38:41;;;;;;;;;;;;;;;20.75;92.01;98178.34;7362794;19;20100;-71
2023/07/16 00:41:08;;;;;;;;;;;;;;;20.75;91.80;98189.94;7368820;19;19929;-71
2023/07/16 00:43:35;;;;;;;;;;;;;;;20.72;91.08;98189.53;7367317;19;19921;-71
2023/07/16 00:46:02;;;;;;;;;;;;;;;20.51;92.29;98178.19;7366029;19;19929;-71
2023/07/16 00:48:29;;;;;;;;;;;;;;;20.60;92.08;98174.16;7367138;19;19953;-72
2023/07/16 00:50:55;;;;;;;;;;;;;;;20.70;92.03;98168.28;7359925;19;19950;-71
2023/07/16 00:53:22;;;;;;;;;;;;;;;20.69;91.88;98188.13;7367441;19;19929;-72
2023/07/16 00:55:49;;;;;;;;;;;;;;;20.75;91.48;98181.84;7362807;19;19929;-71
2023/07/16 00:58:15;;;;;;;;;;;;;;;20.69;91.04;98166.59;7371248;19;19926;-71
2023/07/16 01:00:42;;;;;;;;;;;;;;;20.55;91.66;98160.59;7365667;19;19915;-71
2023/07/16 01:03:10;;;;;;;;;;;;;;;20.62;89.93;98149.75;7363385;19;19922;-71
2023/07/16 01:05:43;;;;;;;;;;;;;;;20.49;90.68;98157.97;7360308;19;20376;-71
2023/07/16 01:08:10;;;;;;;;;;;;;;;20.47;91.49;98160.84;7314004;19;19919;-71
2023/07/16 01:10:39;;;;;;;;;;;;;;;20.52;91.46;98168.25;7332579;19;19998;-71
2023/07/16 01:13:06;;;;;;;;;;;;;;;20.54;91.62;98188.50;7360378;19;19923;-71
2023/07/16 01:15:33;;;;;;;;;;;;;;;20.51;91.29;98196.16;7364489;19;20617;-71
2023/07/16 01:18:01;;;;;;;;;;;;;;;20.53;91.37;98200.25;7358994;19;19919;-71
2023/07/16 01:20:27;;;;;;;;;;;;;;;20.54;90.79;98203.81;7359532;19;20796;-71
2023/07/16 01:23:13;;;;;;;;;;;;;;;20.53;91.03;98211.00;7356279;19;20002;-72
2023/07/16 01:25:42;;;;;;;;;;;;;;;20.42;90.90;98214.44;7360230;19;19915;-70
2023/07/16 01:28:27;;;;;;;;;;;;;;;20.37;91.31;98211.59;7362545;19;19922;-71
2023/07/16 01:30:53;;;;;;;;;;;;;;;20.31;90.74;98213.31;7350663;19;19922;-71
2023/07/16 01:33:20;;;;;;;;;;;;;;;20.36;90.61;98200.03;7361912;19;19927;-71
2023/07/16 01:35:47;;;;;;;;;;;;;;;20.35;90.77;98211.00;7359245;19;19998;-71
2023/07/16 01:38:16;;;;;;;;;;;;;;;20.35;90.21;98214.53;7362782;19;19922;-71
2023/07/16 01:40:44;;;;;;;;;;;;;;;20.30;90.59;98214.38;7358853;19;20357;-71
2023/07/16 01:43:11;;;;;;;;;;;;;;;20.53;89.66;98210.19;7356589;19;19925;-71
2023/07/16 01:45:38;;;;;;;;;;;;;;;20.71;88.94;98218.28;7361457;19;19923;-71
2023/07/16 01:48:23;;;;;;;;;;;;;;;20.39;89.84;98220.28;7365023;19;19929;-71
2023/07/16 01:50:50;;;;;;;;;;;;;;;20.14;90.63;98217.63;7361775;19;19918;-72
2023/07/16 01:53:16;;;;;;;;;;;;;;;20.17;90.83;98222.56;7360951;19;19927;-71
2023/07/16 01:55:44;;;;;;;;;;;;;;;20.15;91.33;98220.09;7359387;19;19923;-71
2023/07/16 01:58:11;;;;;;;;;;;;;;;20.26;90.91;98209.66;7360784;19;19922;-72
2023/07/16 02:00:38;;;;;;;;;;;;;;;20.08;91.64;98197.84;7362399;19;20396;-72
2023/07/16 02:03:05;;;;;;;;;;;;;;;20.22;91.34;98190.50;7355700;19;19943;-72
2023/07/16 02:05:31;;;;;;;;;;;;;;;20.29;89.96;98210.03;7361936;19;20387;-72
2023/07/16 02:07:58;;;;;;;;;;;;;;;20.18;91.54;98232.25;7359854;19;19915;-72
2023/07/16 02:10:25;;;;;;;;;;;;;;;20.28;90.89;98235.25;7364354;19;20919;-72
2023/07/16 02:12:52;;;;;;;;;;;;;;;20.29;90.63;98236.88;7346411;19;19930;-71
2023/07/16 02:15:18;;;;;;;;;;;;;;;20.28;90.33;98247.88;7359818;19;19918;-72
2023/07/16 02:17:45;;;;;;;;;;;;;;;20.14;90.07;98260.59;7365531;19;19923;-72
2023/07/16 02:20:12;;;;;;;;;;;;;;;19.93;90.83;98221.50;7371880;19;19933;-72
2023/07/16 02:22:38;;;;;;;;;;;;;;;20.04;90.51;98222.69;7371058;19;19915;-73
2023/07/16 02:25:05;;;;;;;;;;;;;;;20.03;90.06;98226.41;7368914;19;19926;-72
2023/07/16 02:27:32;;;;;;;;;;;;;;;20.01;90.82;98221.25;7368406;19;19922;-73
